Airfield :
LOGIN :

Register | Disclaimer

   EN    FR    IT 

 










Legend :    VFR   Marginal VFR   IFR   Intensive IFR   Very Intensive IFR
Visi :
Ceiling :
>= 8 km
>= 3000ft
5 to 8 km
1000 to 3000 ft
1500m to 5 km
500 to 1000 ft
800 to 1500m
200 to 500 ft
< 800m
< 200 ft
Symbols :   Thunderstorms  Fog  Heavy snow  Heavy precipitations  Wind > 20 kt
SIGMETs :     Misc.  Thunderstorms  Icing  Turbulence  Mountain Waves  Volcanic Ashes







- Airport Elevation : 65 ft
- IATA code : PMO


LICJ - Palermo Punta Raisi

CURRENT METAR :
  • 202350Z 17003KT 9999 FEW025 24/21 Q1019

EXPIRED METARs :
  • 202320Z VRB02KT 9999 SCT025 24/21 Q1019
  • 202250Z 24003KT 9999 FEW025 25/21 Q1019
  • 202220Z 25004KT 9999 FEW025 25/21 Q1019
  • 202150Z VRB01KT 9999 FEW025 25/21 Q1019
  • 202120Z VRB02KT 9999 FEW025 25/21 Q1019

TAF TAF LICJ
Valid from the 21 at 00:00 until the 22 at 00:00 UTC


202300Z 2100/2124 VRB04KT 9999 SCT030
BECMG 2108/2110 06012KT
BECMG 2118/2120 VRB04KT
No reported NOTAMs for that airfield.



MET'MAP, your aeronautical weather chart ! - Copyright ORBIFLY December 2007 - Disclaimer

ORBIFLY MET'MAP TEAM :

Programming & Development : Alexandra Zaïnal
Concept & Development : Baudouin d'Aumeries
Co-Development & Prog : Marc-Olivier Méhu
Technical & hardware support : Manuel Goepfert

Contact : metmap@orbifly.com




SOURCES & CREDITS :

   NOAA